Terminal Aerodrome Forecast
Issued by NWS

Home | Current Version | Previous Version | Graphics & Text | Print | Product List | Glossary On
Versions: 1 2 3 4 5 6 7 8 9 10 11 12 13 14
000
FTUS43 KICT 160500
TAFSLN
TAF
KSLN 160522Z 1606/1706 19015G22KT P6SM BKN250 WS020/19045KT
     FM161500 21024G33KT P6SM BKN250
     FM161900 27015G24KT P6SM SCT250
     FM162300 34016KT P6SM BKN250
     FM170200 02013KT P6SM OVC200=

USA.gov is the U.S. government's official web portal to all federal, state and local government web resources and services.